Time;durP1;ratioP1;P1;durP2;ratioP2;P2;SDS_P1;SDS_P2;PMS_P1;PMS_P2;Temp;Humidity;BMP_temperature;BMP_pressure;BME280_temperature;BME280_humidity;BME280_pressure;Samples;Min_cycle;Max_cycle;Signal;HPM_P1;HPM_P2
2023/05/09 00:01:57;;;;;;;;;2.50;2.50;;;;;17.43;68.57;99450.13;5035459;28;45411;-63
2023/05/09 00:04:23;;;;;;;;;3.00;3.00;;;;;17.44;68.94;99455.38;5034211;28;45369;-63
2023/05/09 00:06:48;;;;;;;;;3.50;3.25;;;;;17.44;68.62;99446.50;5035571;28;45510;-63
2023/05/09 00:09:13;;;;;;;;;4.00;3.00;;;;;17.44;68.44;99450.03;5035918;28;46342;-63
2023/05/09 00:11:39;;;;;;;;;4.00;4.00;;;;;17.43;68.75;99444.78;5044355;28;45503;-63
2023/05/09 00:14:05;;;;;;;;;2.25;2.25;;;;;17.42;68.22;99443.97;5035768;28;45540;-63
2023/05/09 00:16:31;;;;;;;;;3.00;3.00;;;;;17.40;69.06;99447.69;5042611;28;45420;-63
2023/05/09 00:18:57;;;;;;;;;3.40;3.40;;;;;17.37;68.98;99442.53;5038624;28;45470;-63
2023/05/09 00:21:23;;;;;;;;;4.40;3.80;;;;;17.35;69.09;99442.63;5042055;28;45453;-63
2023/05/09 00:23:48;;;;;;;;;4.50;3.00;;;;;17.32;68.56;99431.31;5041142;28;45593;-63
2023/05/09 00:26:14;;;;;;;;;4.00;4.00;;;;;17.28;69.21;99448.44;5044928;28;45531;-63
2023/05/09 00:28:40;;;;;;;;;3.00;3.00;;;;;17.24;69.42;99445.13;5043621;28;45568;-63
2023/05/09 00:31:05;;;;;;;;;3.50;3.00;;;;;17.24;69.47;99454.94;5036146;28;45465;-63
2023/05/09 00:33:31;;;;;;;;;3.50;3.50;;;;;17.23;69.59;99443.41;5030198;28;45451;-63
2023/05/09 00:35:56;;;;;;;;;4.50;4.00;;;;;17.24;69.85;99444.25;5040845;28;45414;-63
2023/05/09 00:38:22;;;;;;;;;3.00;3.00;;;;;17.26;69.74;99447.69;5032808;28;46210;-63
2023/05/09 00:40:48;;;;;;;;;5.60;3.00;;;;;17.26;69.18;99443.19;5042537;28;45411;-63
2023/05/09 00:43:13;;;;;;;;;3.00;3.00;;;;;17.28;70.37;99433.28;5043417;28;45296;-63
2023/05/09 00:45:39;;;;;;;;;4.00;4.00;;;;;17.28;69.38;99435.09;5043296;28;45445;-63
2023/05/09 00:48:04;;;;;;;;;2.75;2.75;;;;;17.27;69.52;99433.38;5046927;28;45588;-63
2023/05/09 00:50:30;;;;;;;;;2.00;2.00;;;;;17.24;69.81;99439.78;5039566;28;45405;-63
2023/05/09 00:52:58;;;;;;;;;3.25;3.25;;;;;17.23;69.84;99430.09;5043044;28;45520;-63
2023/05/09 00:55:23;;;;;;;;;1.00;1.00;;;;;17.24;69.63;99426.47;5030754;28;45417;-63
2023/05/09 00:57:49;;;;;;;;;4.00;4.00;;;;;17.24;69.42;99414.94;5044329;28;45570;-63
2023/05/09 01:00:15;;;;;;;;;3.50;3.50;;;;;17.22;69.33;99414.19;5014448;28;45490;-63
2023/05/09 01:02:43;;;;;;;;;2.00;2.00;;;;;17.20;69.09;99416.94;5029683;28;45382;-63
2023/05/09 01:05:10;;;;;;;;;4.50;4.50;;;;;17.15;69.51;99416.38;5034761;28;45500;-63
2023/05/09 01:07:44;;;;;;;;;5.40;4.00;;;;;17.12;69.47;99418.34;5041188;28;45484;-63
2023/05/09 01:10:13;;;;;;;;;2.80;2.60;;;;;17.09;69.46;99417.59;5020324;28;45498;-63
2023/05/09 01:13:04;;;;;;;;;4.20;2.60;;;;;17.06;70.16;99420.47;5041143;28;45523;-63
2023/05/09 01:15:36;;;;;;;;;5.00;3.60;;;;;17.06;70.08;99419.63;5042790;28;45389;-63
2023/05/09 01:18:14;;;;;;;;;2.80;2.80;;;;;17.05;70.17;99410.75;5018961;28;47888;-63
2023/05/09 01:20:53;;;;;;;;;3.60;3.60;;;;;17.04;70.51;99402.88;5038669;28;45414;-63
2023/05/09 01:23:43;;;;;;;;;5.40;3.80;;;;;17.03;70.56;99394.03;5037122;28;45307;-63
2023/05/09 01:26:31;;;;;;;;;4.25;3.00;;;;;17.02;70.75;99386.97;5046221;28;45633;-63
2023/05/09 01:29:34;;;;;;;;;3.80;3.80;;;;;17.02;70.80;99389.63;5031503;28;45694;-63
2023/05/09 01:32:06;;;;;;;;;4.20;4.20;;;;;17.04;70.60;99389.53;5039151;28;45425;-64
2023/05/09 01:34:33;;;;;;;;;3.40;3.40;;;;;17.06;70.59;99390.31;5035951;28;45510;-63
2023/05/09 01:37:01;;;;;;;;;3.00;3.00;;;;;17.12;70.35;99392.56;5048431;28;45465;-63
2023/05/09 01:39:29;;;;;;;;;3.00;3.00;;;;;17.16;70.15;99393.25;5027016;28;46199;-63
2023/05/09 01:41:56;;;;;;;;;3.00;3.00;;;;;17.17;69.94;99392.28;5044200;28;45279;-64
2023/05/09 01:44:24;;;;;;;;;3.00;3.00;;;;;17.17;70.59;99385.16;5037948;28;45504;-64
2023/05/09 01:46:54;;;;;;;;;2.50;2.50;;;;;17.18;70.46;99381.53;5049628;28;45487;-64
2023/05/09 01:49:20;;;;;;;;;3.60;3.60;;;;;17.18;70.23;99386.88;5028261;28;46244;-64
2023/05/09 01:51:48;;;;;;;;;4.00;4.00;;;;;17.18;70.30;99389.53;5043543;28;45420;-64
2023/05/09 01:54:15;;;;;;;;;4.80;4.00;;;;;17.20;70.50;99384.97;5032504;28;45439;-61
2023/05/09 01:56:42;;;;;;;;;4.20;4.00;;;;;17.21;70.28;99381.34;5050089;28;45503;-62
2023/05/09 01:59:09;;;;;;;;;4.00;4.00;;;;;17.22;69.71;99390.22;5032669;28;46362;-62
2023/05/09 02:01:36;;;;;;;;;3.80;3.80;;;;;17.21;70.08;99388.50;5032901;28;45376;-62
2023/05/09 02:04:04;;;;;;;;;4.60;4.60;;;;;17.22;70.27;99379.56;5033146;28;45430;-62
2023/05/09 02:06:31;;;;;;;;;4.25;4.00;;;;;17.20;70.18;99374.31;5039458;28;45452;-62
2023/05/09 02:08:58;;;;;;;;;3.00;3.00;;;;;17.18;70.31;99373.56;5031475;28;46524;-63
2023/05/09 02:11:23;;;;;;;;;5.00;4.00;;;;;17.18;70.68;99370.03;5038885;28;45428;-62
2023/05/09 02:13:49;;;;;;;;;3.50;3.50;;;;;17.16;70.43;99367.47;5034984;28;45511;-62
2023/05/09 02:16:15;;;;;;;;;6.00;6.00;;;;;17.16;70.70;99378.13;5040208;28;45599;-62
2023/05/09 02:18:40;;;;;;;;;4.50;4.50;;;;;17.16;70.99;99383.44;5039729;28;45507;-62
2023/05/09 02:21:06;;;;;;;;;3.00;3.00;;;;;17.12;70.85;99379.25;5043506;28;45322;-62
2023/05/09 02:23:31;;;;;;;;;6.75;4.50;;;;;17.07;70.90;99374.25;5035140;28;46155;-63
2023/05/09 02:25:56;;;;;;;;;4.25;4.00;;;;;17.03;71.17;99378.03;5042657;28;45583;-62
2023/05/09 02:28:24;;;;;;;;;4.00;4.00;;;;;17.01;71.02;99379.94;5038231;28;45632;-63
2023/05/09 02:30:51;;;;;;;;;4.20;4.20;;;;;17.00;71.04;99382.69;5043239;28;45449;-63
2023/05/09 02:33:17;;;;;;;;;4.20;4.20;;;;;16.99;71.05;99380.97;5040278;28;45673;-62
2023/05/09 02:35:45;;;;;;;;;4.25;4.25;;;;;16.97;71.18;99389.06;5042383;28;45361;-62
2023/05/09 02:38:11;;;;;;;;;4.00;4.00;;;;;16.95;71.09;99390.97;5019138;28;47041;-62
2023/05/09 02:40:38;;;;;;;;;4.60;4.00;;;;;16.89;71.33;99382.50;5018299;28;45426;-62
2023/05/09 02:43:03;;;;;;;;;3.20;3.20;;;;;16.85;71.65;99388.97;5034962;28;45449;-63
2023/05/09 02:45:29;;;;;;;;;4.50;4.00;;;;;16.83;71.45;99393.53;5033632;28;45545;-62
2023/05/09 02:47:54;;;;;;;;;3.50;3.25;;;;;16.80;71.91;99393.72;5035133;28;45482;-62
2023/05/09 02:50:20;;;;;;;;;5.50;4.00;;;;;16.76;71.77;99387.72;5034526;28;45435;-63
2023/05/09 02:52:45;;;;;;;;;5.00;5.00;;;;;16.73;71.74;99385.25;5030675;28;45430;-62
2023/05/09 02:55:10;;;;;;;;;3.50;3.50;;;;;16.69;72.04;99387.25;5034205;28;45553;-63
2023/05/09 02:57:36;;;;;;;;;4.00;4.00;;;;;16.66;71.68;99383.91;5041245;28;46085;-63
2023/05/09 03:00:08;;;;;;;;;5.00;4.00;;;;;16.61;72.09;99386.81;5037104;28;45508;-63
2023/05/09 03:02:33;;;;;;;;;4.40;4.40;;;;;16.56;72.44;99382.72;5014302;28;45429;-62
2023/05/09 03:04:59;;;;;;;;;4.00;4.00;;;;;16.51;72.73;99384.81;5036374;28;45488;-62
2023/05/09 03:07:24;;;;;;;;;5.00;4.75;;;;;16.46;73.17;99386.88;5039366;28;47187;-63
2023/05/09 03:09:49;;;;;;;;;5.00;5.00;;;;;16.43;73.33;99382.59;5039959;28;45390;-62
2023/05/09 03:12:15;;;;;;;;;4.75;4.75;;;;;16.40;73.34;99382.78;5045309;28;45780;-62
2023/05/09 03:14:40;;;;;;;;;5.25;5.25;;;;;16.37;73.38;99375.00;5039949;28;45386;-62
2023/05/09 03:17:06;;;;;;;;;4.75;3.50;;;;;16.36;73.49;99375.94;5047013;28;45769;-62
2023/05/09 03:19:31;;;;;;;;;5.00;5.00;;;;;16.36;73.38;99379.44;5041348;28;45515;-62
2023/05/09 03:21:57;;;;;;;;;3.75;3.75;;;;;16.35;73.70;99380.41;5048203;28;45409;-62
2023/05/09 03:24:25;;;;;;;;;4.75;3.75;;;;;16.36;73.45;99383.91;5043240;28;45551;-62
2023/05/09 03:26:50;;;;;;;;;5.60;4.80;;;;;16.36;73.39;99383.91;5040432;28;45511;-63
2023/05/09 03:29:16;;;;;;;;;5.00;5.00;;;;;16.34;73.69;99384.00;5013094;28;45743;-62
2023/05/09 03:31:41;;;;;;;;;4.00;3.00;;;;;16.33;73.77;99387.63;5039116;28;45607;-62
2023/05/09 03:34:11;;;;;;;;;5.00;5.00;;;;;16.31;74.01;99384.19;5032593;28;45355;-62
2023/05/09 03:36:37;;;;;;;;;4.00;4.00;;;;;16.28;74.16;99381.69;5039714;28;46405;-62
2023/05/09 03:39:02;;;;;;;;;5.50;5.50;;;;;16.27;74.25;99379.13;5034042;28;45466;-62
2023/05/09 03:41:27;;;;;;;;;8.25;6.25;;;;;16.25;74.76;99379.25;5039025;28;45521;-62
2023/05/09 03:43:53;;;;;;;;;7.00;7.00;;;;;16.24;74.89;99379.34;5035289;28;45476;-62
2023/05/09 03:46:18;;;;;;;;;4.00;4.00;;;;;16.22;74.92;99368.78;5038508;28;46417;-62
2023/05/09 03:48:44;;;;;;;;;5.75;4.75;;;;;16.20;74.94;99370.66;5034138;28;45526;-62
2023/05/09 03:51:09;;;;;;;;;3.75;3.75;;;;;16.17;75.08;99372.66;5036188;28;45700;-62
2023/05/09 03:53:35;;;;;;;;;4.75;4.75;;;;;16.13;75.06;99377.28;5015010;28;45479;-62
2023/05/09 03:56:00;;;;;;;;;4.50;4.50;;;;;16.13;74.75;99373.75;5036482;28;45414;-62
2023/05/09 03:58:25;;;;;;;;;3.50;3.50;;;;;16.13;74.77;99381.75;5031088;28;45403;-62
2023/05/09 04:00:53;;;;;;;;;5.75;5.75;;;;;16.13;74.99;99387.06;5035168;28;45312;-62
2023/05/09 04:03:19;;;;;;;;;5.25;5.25;;;;;16.14;75.08;99383.47;5030993;28;45583;-62
2023/05/09 04:05:45;;;;;;;;;3.75;3.75;;;;;16.12;75.26;99383.53;5027000;28;47992;-62
2023/05/09 04:08:10;;;;;;;;;6.75;5.75;;;;;16.11;75.06;99375.66;5029959;28;45439;-62
2023/05/09 04:10:35;;;;;;;;;4.25;4.25;;;;;16.10;75.53;99380.13;5040439;28;45455;-63
2023/05/09 04:13:01;;;;;;;;;5.00;4.00;;;;;16.08;75.47;99375.84;5033666;28;45622;-62
2023/05/09 04:15:26;;;;;;;;;5.00;5.00;;;;;16.05;75.31;99371.56;5037909;28;46085;-62
2023/05/09 04:17:51;;;;;;;;;5.50;4.75;;;;;16.02;76.00;99367.28;5032462;28;45466;-62
2023/05/09 04:20:17;;;;;;;;;5.25;5.25;;;;;16.02;76.22;99366.44;5022613;28;45416;-60
2023/05/09 04:22:42;;;;;;;;;6.75;5.50;;;;;16.00;76.39;99373.63;5033337;28;45484;-61
2023/05/09 04:25:11;;;;;;;;;4.50;4.50;;;;;16.00;76.33;99374.50;5037174;28;45456;-61
2023/05/09 04:27:36;;;;;;;;;5.20;5.20;;;;;15.97;76.24;99372.00;5016904;28;45365;-61
2023/05/09 04:30:02;;;;;;;;;6.50;6.50;;;;;15.95;76.00;99375.69;5039209;28;45314;-60
2023/05/09 04:32:28;;;;;;;;;5.50;5.50;;;;;15.93;76.36;99378.44;5034408;28;45550;-60
2023/05/09 04:34:53;;;;;;;;;4.50;4.50;;;;;15.90;76.41;99377.78;5034829;28;46341;-61
2023/05/09 04:37:19;;;;;;;;;6.25;5.50;;;;;15.86;76.98;99376.25;5022894;28;45448;-61
2023/05/09 04:39:44;;;;;;;;;6.25;6.25;;;;;15.86;76.39;99374.44;5027879;28;45525;-61
2023/05/09 04:42:10;;;;;;;;;7.00;6.50;;;;;15.85;76.75;99374.53;5035688;28;45452;-60
2023/05/09 04:44:35;;;;;;;;;6.00;6.00;;;;;15.81;76.94;99368.50;5039048;28;46331;-61
2023/05/09 04:47:01;;;;;;;;;8.00;5.75;;;;;15.79;77.11;99373.06;5018966;28;45508;-61
2023/05/09 04:49:26;;;;;;;;;6.50;6.50;;;;;15.77;77.47;99372.28;5039085;28;45429;-61
2023/05/09 04:51:51;;;;;;;;;5.75;5.75;;;;;15.76;77.89;99373.22;5035839;28;45532;-61
2023/05/09 04:54:17;;;;;;;;;10.00;7.25;;;;;15.76;77.85;99372.38;5035154;28;46044;-60
2023/05/09 04:56:43;;;;;;;;;6.75;6.75;;;;;15.77;77.40;99371.44;5051259;28;45531;-60
2023/05/09 04:59:09;;;;;;;;;5.75;4.75;;;;;15.77;77.90;99364.31;5049911;28;45468;-61
2023/05/09 05:01:34;;;;;;;;;7.00;7.00;;;;;15.79;77.21;99356.25;5043077;28;45461;-60
2023/05/09 05:03:59;;;;;;;;;6.50;6.50;;;;;15.83;77.40;99366.63;5050677;28;45671;-61
2023/05/09 05:06:25;;;;;;;;;5.00;5.00;;;;;15.86;77.09;99363.81;5053926;28;45457;-60
2023/05/09 05:08:51;;;;;;;;;6.00;6.00;;;;;15.90;76.98;99364.50;5053453;28;45435;-61
2023/05/09 05:11:17;;;;;;;;;8.00;7.00;;;;;15.95;77.26;99363.25;5054085;28;45293;-61
2023/05/09 05:13:45;;;;;;;;;7.50;7.50;;;;;15.99;77.10;99361.28;5035577;28;46458;-61
2023/05/09 05:16:10;;;;;;;;;7.80;7.80;;;;;16.02;76.96;99367.28;5053789;28;45488;-61
2023/05/09 05:18:36;;;;;;;;;4.00;4.00;;;;;16.07;76.95;99363.50;5044065;28;45375;-61
2023/05/09 05:21:01;;;;;;;;;7.00;6.00;;;;;16.13;76.96;99357.81;5052691;28;45418;-61
2023/05/09 05:23:27;;;;;;;;;6.50;6.25;;;;;16.18;76.72;99364.56;5053182;28;45384;-61
2023/05/09 05:25:52;;;;;;;;;6.00;5.50;;;;;16.25;76.56;99365.94;5049958;28;45384;-60
2023/05/09 05:28:18;;;;;;;;;7.00;6.50;;;;;16.33;76.73;99368.13;5051898;28;45323;-61
2023/05/09 05:30:43;;;;;;;;;5.75;5.75;;;;;16.40;76.58;99365.03;5023131;28;45630;-61
2023/05/09 05:33:08;;;;;;;;;9.75;6.75;;;;;16.51;76.32;99367.03;5033497;28;45480;-61
2023/05/09 05:35:34;;;;;;;;;8.25;6.00;;;;;16.62;75.87;99361.91;5019462;28;46184;-61
2023/05/09 05:38:01;;;;;;;;;6.00;6.00;;;;;16.74;75.53;99360.34;5045219;28;45545;-61
2023/05/09 05:40:27;;;;;;;;;7.00;6.00;;;;;16.85;75.28;99357.00;5053449;28;45385;-61
2023/05/09 05:42:53;;;;;;;;;6.40;6.00;;;;;16.95;75.07;99364.31;5034452;28;46305;-61
2023/05/09 05:45:19;;;;;;;;;9.50;7.00;;;;;17.06;74.80;99359.19;5035110;28;45306;-61
2023/05/09 05:47:44;;;;;;;;;7.75;7.50;;;;;17.16;75.01;99347.94;5052509;28;45435;-61
2023/05/09 05:50:12;;;;;;;;;6.75;6.25;;;;;17.26;74.51;99357.09;5053347;28;45462;-61
2023/05/09 05:52:38;;;;;;;;;12.00;10.50;;;;;17.35;74.30;99345.81;5035145;28;46938;-61
2023/05/09 05:55:04;;;;;;;;;7.00;7.00;;;;;17.42;74.02;99348.03;5053201;28;45417;-61
2023/05/09 05:57:30;;;;;;;;;7.75;7.75;;;;;17.51;73.88;99343.88;5039477;28;45328;-69
2023/05/09 05:59:56;;;;;;;;;5.50;5.50;;;;;17.54;73.67;99345.50;5042324;28;45631;-69
2023/05/09 06:02:21;;;;;;;;;9.25;8.00;;;;;17.46;73.30;99343.31;5038783;28;46965;-70
2023/05/09 06:04:47;;;;;;;;;6.00;6.00;;;;;17.41;73.41;99340.13;5022639;28;45539;-70
2023/05/09 06:07:15;;;;;;;;;7.00;6.00;;;;;17.36;73.48;99345.75;5049951;28;45342;-69
2023/05/09 06:09:40;;;;;;;;;7.75;7.00;;;;;17.38;73.46;99345.63;5035430;28;45488;-69
2023/05/09 06:12:06;;;;;;;;;8.50;7.75;;;;;17.40;73.49;99341.94;5035021;28;46582;-70
2023/05/09 06:14:31;;;;;;;;;9.00;7.75;;;;;17.44;73.53;99340.75;5035228;28;45444;-69
2023/05/09 06:17:01;;;;;;;;;8.00;8.00;;;;;17.48;72.91;99333.41;5053126;28;45446;-69
2023/05/09 06:19:27;;;;;;;;;6.50;6.50;;;;;17.49;73.33;99328.94;5025606;28;45506;-69
2023/05/09 06:21:52;;;;;;;;;10.50;9.25;;;;;17.55;72.70;99323.22;5052356;28;46557;-70
2023/05/09 06:24:17;;;;;;;;;6.75;5.75;;;;;17.63;72.70;99318.22;5053042;28;45275;-69
2023/05/09 06:26:43;;;;;;;;;8.25;7.75;;;;;17.70;72.37;99324.91;5035176;28;45558;-69
2023/05/09 06:29:09;;;;;;;;;8.25;7.00;;;;;17.79;72.17;99313.63;5034871;28;45390;-71
2023/05/09 06:31:37;;;;;;;;;8.60;7.80;;;;;17.91;71.70;99312.81;5052525;28;45618;-70
2023/05/09 06:34:03;;;;;;;;;9.00;8.00;;;;;18.04;71.89;99307.50;5055934;28;45464;-70
2023/05/09 06:36:29;;;;;;;;;11.60;10.20;;;;;18.16;71.46;99297.81;5056819;28;45433;-70
2023/05/09 06:38:54;;;;;;;;;7.50;7.50;;;;;18.26;71.15;99302.44;5056419;28;45365;-69
2023/05/09 06:41:20;;;;;;;;;10.25;9.75;;;;;18.38;71.46;99300.72;5056222;28;45486;-70
2023/05/09 06:43:47;;;;;;;;;10.00;9.25;;;;;18.51;70.97;99293.56;5056522;28;45538;-70
2023/05/09 06:46:12;;;;;;;;;9.00;8.00;;;;;18.65;70.52;99293.47;5025198;28;45350;-70
2023/05/09 06:48:43;;;;;;;;;7.20;7.00;;;;;18.75;70.21;99285.69;5055900;28;45342;-69
2023/05/09 06:51:10;;;;;;;;;7.50;7.50;;;;;18.88;70.14;99283.84;5056209;28;45413;-70
2023/05/09 06:53:35;;;;;;;;;9.60;9.60;;;;;19.02;69.51;99281.03;5038777;28;45408;-70
2023/05/09 06:56:01;;;;;;;;;8.20;7.60;;;;;19.13;68.90;99275.75;5056045;28;45598;-70
2023/05/09 06:58:27;;;;;;;;;8.50;8.00;;;;;19.24;68.91;99280.34;5055747;28;45397;-70
2023/05/09 07:00:53;;;;;;;;;9.75;9.75;;;;;19.33;68.67;99270.78;5051128;28;46566;-70
2023/05/09 07:03:18;;;;;;;;;9.25;9.25;;;;;19.41;68.40;99273.75;5047018;28;45799;-70
2023/05/09 07:05:44;;;;;;;;;6.00;6.00;;;;;19.48;67.99;99261.63;5056013;28;45771;-69
2023/05/09 07:08:09;;;;;;;;;8.75;8.75;;;;;19.56;67.31;99261.09;5056054;28;45519;-69
2023/05/09 07:10:35;;;;;;;;;8.00;7.00;;;;;19.61;67.49;99257.09;5055392;28;45428;-70
2023/05/09 07:13:01;;;;;;;;;7.75;7.75;;;;;19.69;67.26;99257.38;5037373;28;45510;-69
2023/05/09 07:15:26;;;;;;;;;10.50;8.75;;;;;19.79;66.60;99250.34;5055846;28;45410;-69
2023/05/09 07:17:51;;;;;;;;;7.50;7.50;;;;;19.89;66.46;99245.16;5048618;28;45554;-69
2023/05/09 07:20:17;;;;;;;;;10.00;9.00;;;;;19.96;65.96;99242.84;5053452;28;46480;-70
2023/05/09 07:22:42;;;;;;;;;9.00;8.75;;;;;20.05;65.48;99244.84;5044242;28;45434;-69
2023/05/09 07:25:08;;;;;;;;;11.50;9.50;;;;;20.11;65.35;99234.50;5053560;28;45464;-70
2023/05/09 07:27:34;;;;;;;;;11.25;11.25;;;;;20.20;65.59;99240.97;5055622;28;45508;-69
2023/05/09 07:30:00;;;;;;;;;8.00;8.00;;;;;20.25;64.88;99236.13;5019050;28;46908;-69
2023/05/09 07:32:27;;;;;;;;;8.25;8.25;;;;;20.33;64.71;99219.44;5035912;28;45310;-69
2023/05/09 07:34:53;;;;;;;;;8.20;7.20;;;;;20.38;64.07;99215.47;5054557;28;45424;-69
2023/05/09 07:37:19;;;;;;;;;8.00;8.00;;;;;20.43;64.37;99207.09;5044437;28;45335;-70
2023/05/09 07:39:46;;;;;;;;;8.25;8.25;;;;;20.53;63.58;99205.38;5039958;28;46497;-69
2023/05/09 07:42:12;;;;;;;;;7.60;6.80;;;;;20.60;63.28;99193.22;5055543;28;45433;-69
2023/05/09 07:44:37;;;;;;;;;6.75;6.75;;;;;20.67;62.80;99188.19;5054638;28;45528;-70
2023/05/09 07:47:04;;;;;;;;;13.50;10.50;;;;;20.72;63.27;99189.53;5055255;28;45406;-70
2023/05/09 07:49:29;;;;;;;;;8.20;8.20;;;;;20.77;63.08;99183.81;5033667;28;45627;-69
2023/05/09 07:51:55;;;;;;;;;6.25;6.25;;;;;20.80;62.83;99180.88;5047251;28;45318;-70
2023/05/09 07:54:20;;;;;;;;;5.50;5.00;;;;;20.84;62.54;99185.00;5042309;28;45287;-69
2023/05/09 07:56:45;;;;;;;;;9.75;9.00;;;;;20.87;62.14;99171.38;5055447;28;45506;-69
2023/05/09 07:59:12;;;;;;;;;6.25;6.25;;;;;20.92;62.07;99176.34;5055560;28;46477;-69
2023/05/09 08:01:38;;;;;;;;;8.00;6.20;;;;;20.96;61.97;99175.09;5025214;28;45386;-70
2023/05/09 08:04:05;;;;;;;;;7.25;6.00;;;;;21.03;61.66;99166.44;5052306;28;45433;-69
2023/05/09 08:06:31;;;;;;;;;9.75;7.00;;;;;21.09;61.66;99162.41;5055245;28;45481;-69
2023/05/09 08:08:57;;;;;;;;;11.20;10.20;;;;;21.14;61.99;99161.03;5036790;28;45507;-69
2023/05/09 08:11:22;;;;;;;;;6.00;6.00;;;;;21.19;61.77;99160.66;5036958;28;45479;-69
2023/05/09 08:13:48;;;;;;;;;7.00;7.00;;;;;21.24;60.64;99155.81;5036541;28;45391;-69
2023/05/09 08:16:13;;;;;;;;;9.75;9.75;;;;;21.27;60.85;99147.53;5054851;28;45393;-69
2023/05/09 08:18:39;;;;;;;;;7.50;7.00;;;;;21.33;61.15;99140.78;5040634;28;46394;-69
2023/05/09 08:21:04;;;;;;;;;8.00;7.50;;;;;21.38;60.92;99143.94;5034597;28;45435;-71
2023/05/09 08:23:29;;;;;;;;;12.75;9.00;;;;;21.44;60.28;99138.91;5053193;28;45929;-71
2023/05/09 08:25:55;;;;;;;;;10.25;10.00;;;;;21.49;60.05;99136.66;5055196;28;45496;-70
2023/05/09 08:28:23;;;;;;;;;6.75;6.25;;;;;21.53;60.16;99137.25;5054913;28;45764;-70
2023/05/09 08:30:50;;;;;;;;;9.80;9.80;;;;;21.58;59.70;99129.69;5055223;28;45388;-70
2023/05/09 08:33:15;;;;;;;;;6.80;6.60;;;;;21.65;59.67;99119.25;5054885;28;45430;-70
2023/05/09 08:35:41;;;;;;;;;8.75;8.00;;;;;21.71;59.30;99116.91;5054978;28;45503;-70
2023/05/09 08:38:06;;;;;;;;;6.75;6.75;;;;;21.75;58.70;99118.34;5054373;28;45626;-70
2023/05/09 08:40:36;;;;;;;;;8.00;7.50;;;;;21.79;58.38;99103.66;5055151;28;45395;-70
2023/05/09 08:43:04;;;;;;;;;11.20;11.20;;;;;21.86;58.13;99107.53;5020312;28;45381;-70
2023/05/09 08:45:39;;;;;;;;;7.00;7.00;;;;;21.89;57.94;99095.69;5055113;28;45496;-70
2023/05/09 08:48:05;;;;;;;;;9.80;9.00;;;;;21.95;58.26;99092.47;5047494;28;46636;-71
2023/05/09 08:50:31;;;;;;;;;8.00;7.00;;;;;21.98;57.40;99091.34;5047985;28;45442;-70
2023/05/09 08:52:57;;;;;;;;;12.40;10.00;;;;;22.01;57.73;99083.91;5054886;28;45368;-70
2023/05/09 08:55:23;;;;;;;;;10.75;10.75;;;;;22.09;57.60;99077.88;5036648;28;45509;-70
2023/05/09 08:57:50;;;;;;;;;5.60;5.60;;;;;22.20;57.16;99075.94;5054911;28;45405;-70
2023/05/09 09:00:19;;;;;;;;;6.60;6.60;;;;;22.30;57.21;99075.94;5054935;28;45369;-70
2023/05/09 09:02:44;;;;;;;;;7.20;7.20;;;;;22.39;57.17;99064.41;5041171;28;45387;-70
2023/05/09 09:05:10;;;;;;;;;9.00;8.50;;;;;22.51;56.79;99057.91;5055080;28;45838;-70
2023/05/09 09:07:37;;;;;;;;;8.00;7.00;;;;;22.67;56.75;99051.16;5054466;28;46367;-68
2023/05/09 09:10:03;;;;;;;;;6.60;6.60;;;;;22.74;55.48;99044.25;5054480;28;45477;-69
2023/05/09 09:12:30;;;;;;;;;6.00;6.00;;;;;22.76;55.00;99043.13;5009954;28;45435;-69
2023/05/09 09:15:02;;;;;;;;;5.60;5.60;;;;;22.76;55.58;99034.19;5054461;28;45382;-70
2023/05/09 09:17:29;;;;;;;;;8.00;6.60;;;;;22.84;55.57;99032.53;5032552;28;45536;-68
2023/05/09 09:19:59;;;;;;;;;2.40;2.40;;;;;22.93;56.21;99023.63;5048931;28;45404;-69
2023/05/09 09:22:32;;;;;;;;;13.20;11.40;;;;;23.01;55.55;99025.59;5054598;28;45405;-69
2023/05/09 09:25:00;;;;;;;;;6.40;6.40;;;;;23.11;55.39;99023.75;5054172;28;45290;-69
2023/05/09 09:27:26;;;;;;;;;5.20;5.20;;;;;23.18;54.62;99015.94;5054161;28;45463;-70
2023/05/09 09:29:54;;;;;;;;;8.50;6.25;;;;;23.18;54.92;99024.88;5040679;28;45492;-70
2023/05/09 09:32:21;;;;;;;;;11.60;9.80;;;;;23.17;54.31;99011.56;5053760;28;45437;-69
2023/05/09 09:34:49;;;;;;;;;9.80;8.40;;;;;23.18;54.37;99010.56;5054160;28;45402;-70
2023/05/09 09:37:22;;;;;;;;;7.00;7.00;;;;;23.23;54.53;99011.00;5054258;28;45389;-70
2023/05/09 09:39:55;;;;;;;;;7.80;6.60;;;;;23.22;53.75;99007.44;5054054;28;45418;-69
2023/05/09 09:42:22;;;;;;;;;7.40;7.40;;;;;23.22;53.91;99001.22;5036014;28;45361;-69
2023/05/09 09:45:01;;;;;;;;;5.80;5.80;;;;;23.19;53.59;98996.13;5054034;28;45322;-69
2023/05/09 09:47:31;;;;;;;;;6.60;6.60;;;;;23.19;53.77;98996.13;5053518;28;45604;-69
2023/05/09 09:49:57;;;;;;;;;5.20;5.20;;;;;23.24;53.84;98985.78;5053985;28;45294;-69
2023/05/09 09:52:26;;;;;;;;;9.00;8.00;;;;;23.31;54.25;98978.81;5035533;28;45436;-70
2023/05/09 09:54:55;;;;;;;;;5.00;4.20;;;;;23.39;53.71;98968.19;5045662;28;45411;-69
2023/05/09 09:57:35;;;;;;;;;9.60;8.20;;;;;23.51;53.57;98966.16;5048949;28;46542;-69
2023/05/09 10:00:00;;;;;;;;;7.20;7.20;;;;;23.62;53.32;98960.66;5053960;28;45317;-69
2023/05/09 10:02:26;;;;;;;;;9.25;9.25;;;;;23.72;53.85;98953.38;5039715;28;45440;-69
2023/05/09 10:04:51;;;;;;;;;8.50;6.75;;;;;23.80;52.98;98950.75;5053238;28;45483;-69
2023/05/09 10:07:21;;;;;;;;;7.00;6.00;;;;;23.90;53.13;98946.19;5052523;28;46416;-69
2023/05/09 10:09:48;;;;;;;;;7.40;7.40;;;;;23.94;52.56;98942.22;5053314;28;45414;-69
2023/05/09 10:12:17;;;;;;;;;8.40;8.40;;;;;24.04;52.19;98944.00;5035143;28;45497;-69
2023/05/09 10:14:44;;;;;;;;;7.20;6.20;;;;;24.14;52.17;98932.13;5035002;28;45372;-70
2023/05/09 10:17:13;;;;;;;;;10.00;8.00;;;;;24.30;52.04;98934.19;5051906;28;45480;-69
2023/05/09 10:19:47;;;;;;;;;5.80;5.80;;;;;24.45;51.04;98921.91;5045180;28;45358;-70
2023/05/09 10:22:16;;;;;;;;;6.80;6.80;;;;;24.53;50.83;98921.97;5053414;28;45469;-68
2023/05/09 10:25:21;;;;;;;;;7.60;6.80;;;;;24.58;51.07;98922.34;5052849;28;45499;-69
2023/05/09 10:27:47;;;;;;;;;7.00;6.60;;;;;24.63;51.01;98928.09;5019877;28;46630;-69
2023/05/09 10:30:30;;;;;;;;;8.00;8.00;;;;;24.74;50.73;98915.41;5053196;28;45396;-69
2023/05/09 10:33:02;;;;;;;;;7.80;6.60;;;;;24.86;50.82;98914.16;5021403;28;45394;-69
2023/05/09 10:35:45;;;;;;;;;7.80;7.40;;;;;24.89;50.77;98909.28;5034961;28;45606;-68
2023/05/09 10:38:11;;;;;;;;;7.60;7.00;;;;;24.90;49.78;98905.59;5053165;28;45514;-69
2023/05/09 10:40:39;;;;;;;;;8.20;8.20;;;;;24.95;49.87;98899.78;5053231;28;45415;-69
2023/05/09 10:43:06;;;;;;;;;7.80;7.80;;;;;25.03;49.56;98897.09;5034721;28;45338;-68
2023/05/09 10:45:32;;;;;;;;;9.40;9.40;;;;;25.05;49.13;98892.41;5035188;28;45400;-69
2023/05/09 10:48:00;;;;;;;;;9.60;8.60;;;;;24.95;49.36;98884.44;5052547;28;45641;-69
2023/05/09 10:50:26;;;;;;;;;6.40;6.40;;;;;24.86;49.40;98884.47;5052997;28;45345;-69
2023/05/09 10:53:07;;;;;;;;;7.00;7.00;;;;;24.74;48.83;98880.34;5052348;28;45467;-69
2023/05/09 10:55:38;;;;;;;;;8.00;6.00;;;;;24.62;49.07;98877.91;5034569;28;45509;-69
2023/05/09 10:58:19;;;;;;;;;8.20;8.20;;;;;24.53;49.15;98876.16;5034412;28;46601;-69
2023/05/09 11:00:49;;;;;;;;;7.20;7.20;;;;;24.45;50.07;98861.75;5052767;28;45421;-69
2023/05/09 11:03:17;;;;;;;;;9.40;9.40;;;;;24.34;49.63;98860.97;5018621;28;45418;-69
2023/05/09 11:05:44;;;;;;;;;9.25;9.25;;;;;24.25;50.82;98858.38;5034633;28;45574;-70
2023/05/09 11:08:30;;;;;;;;;7.20;7.20;;;;;24.18;50.65;98855.41;5053396;28;46284;-70
2023/05/09 11:10:59;;;;;;;;;7.20;7.00;;;;;24.10;50.79;98865.28;5034862;28;45409;-69
2023/05/09 11:13:29;;;;;;;;;8.20;7.80;;;;;23.92;50.94;98858.03;5050967;28;45403;-69
2023/05/09 11:16:01;;;;;;;;;8.40;8.40;;;;;23.76;51.57;98854.31;5040951;28;45523;-70
2023/05/09 11:18:30;;;;;;;;;5.80;5.20;;;;;23.57;51.59;98839.13;5042494;28;46133;-69
2023/05/09 11:20:55;;;;;;;;;7.00;7.00;;;;;23.45;52.30;98833.06;5027883;28;45448;-70
2023/05/09 11:23:26;;;;;;;;;8.00;8.00;;;;;23.43;52.60;98820.75;5051822;28;45666;-69
2023/05/09 11:25:52;;;;;;;;;6.80;6.60;;;;;23.36;51.69;98835.78;5055469;28;45442;-69
2023/05/09 11:28:29;;;;;;;;;7.00;7.00;;;;;23.24;51.82;98825.25;5055632;28;45509;-69
2023/05/09 11:31:10;;;;;;;;;7.20;6.40;;;;;23.23;52.26;98820.00;5037710;28;45405;-70
2023/05/09 11:33:37;;;;;;;;;5.00;5.00;;;;;23.25;51.47;98818.03;5042234;28;45371;-70